createdAt,value
2023-04-29T00:03:49.223Z,85.49
2023-04-29T00:07:46.710Z,86.03
2023-04-29T00:11:45.727Z,85.71
2023-04-29T00:15:43.695Z,87.23
2023-04-29T00:19:41.778Z,87.50
2023-04-29T00:23:39.709Z,88.16
2023-04-29T00:27:37.742Z,88.94
2023-04-29T00:31:35.795Z,89.33
2023-04-29T00:35:33.683Z,89.62
2023-04-29T00:39:31.720Z,90.59
2023-04-29T00:43:29.802Z,90.94
2023-04-29T00:47:27.664Z,92.00
2023-04-29T00:51:26.782Z,91.89
2023-04-29T00:55:26.670Z,91.51
2023-04-29T00:59:24.692Z,91.70
2023-04-29T01:03:24.268Z,92.63
2023-04-29T01:07:35.619Z,93.26
2023-04-29T01:11:37.673Z,93.36
2023-04-29T01:15:47.660Z,93.82
2023-04-29T01:19:59.601Z,94.47
2023-04-29T01:24:02.668Z,94.89
2023-04-29T01:28:22.605Z,94.94
2023-04-29T01:32:23.631Z,95.42
2023-04-29T01:36:46.646Z,96.40
2023-04-29T01:41:03.725Z,96.57
2023-04-29T01:45:03.591Z,96.22
2023-04-29T01:49:01.679Z,97.05
2023-04-29T01:52:59.551Z,97.47
2023-04-29T01:56:58.645Z,97.30
2023-04-29T02:01:22.638Z,98.06
2023-04-29T02:05:20.605Z,98.19
2023-04-29T02:09:21.585Z,99.05
2023-04-29T02:13:23.647Z,99.76
2023-04-29T02:17:21.569Z,100.00
2023-04-29T02:21:19.607Z,100.00
2023-04-29T02:25:17.530Z,100.00
2023-04-29T02:29:15.596Z,100.00
2023-04-29T02:33:13.583Z,100.00
2023-04-29T02:37:12.668Z,100.00
2023-04-29T02:41:10.544Z,100.00
2023-04-29T02:45:08.504Z,100.00
2023-04-29T02:49:06.496Z,100.00
2023-04-29T02:53:05.594Z,100.00
2023-04-29T02:57:03.637Z,100.00
2023-04-29T03:01:01.598Z,100.00
2023-04-29T03:04:59.487Z,100.00
2023-04-29T03:08:57.507Z,100.00
2023-04-29T03:12:55.442Z,100.00
2023-04-29T03:16:55.558Z,100.00
2023-04-29T03:20:53.603Z,100.00
2023-04-29T03:24:52.557Z,100.00
2023-04-29T03:28:50.428Z,100.00
2023-04-29T03:32:48.583Z,100.00
2023-04-29T03:36:46.437Z,99.46
2023-04-29T03:40:44.463Z,98.30
2023-04-29T03:44:43.512Z,95.10
2023-04-29T03:48:41.429Z,93.20
2023-04-29T03:52:39.493Z,91.11
2023-04-29T03:56:39.409Z,89.01
2023-04-29T04:00:37.395Z,87.60
2023-04-29T04:04:38.685Z,83.37
2023-04-29T04:08:36.356Z,80.56
2023-04-29T04:12:38.396Z,77.33
2023-04-29T04:16:36.404Z,74.62
2023-04-29T04:20:34.481Z,73.61
2023-04-29T04:24:33.356Z,73.50
2023-04-29T04:28:31.409Z,74.28
2023-04-29T04:32:33.438Z,75.88
2023-04-29T04:36:31.380Z,76.79
2023-04-29T04:40:30.473Z,76.93
2023-04-29T04:44:47.362Z,77.52
2023-04-29T04:48:55.368Z,77.57
2023-04-29T04:52:56.460Z,78.37
2023-04-29T04:57:07.456Z,79.41
2023-04-29T05:01:06.384Z,77.63
2023-04-29T05:05:04.438Z,75.36
2023-04-29T05:09:03.343Z,74.18
2023-04-29T05:13:01.406Z,73.00
2023-04-29T05:16:59.456Z,71.85
2023-04-29T05:20:57.370Z,72.17
2023-04-29T05:24:56.364Z,71.51
2023-04-29T05:28:55.322Z,71.49
2023-04-29T05:32:55.340Z,71.76
2023-04-29T05:36:53.273Z,72.88
2023-04-29T05:40:51.303Z,71.14
2023-04-29T05:45:06.339Z,69.79
2023-04-29T05:49:04.413Z,67.18
2023-04-29T05:53:03.285Z,65.50
2023-04-29T05:57:01.396Z,65.38
2023-04-29T06:01:00.057Z,62.54
2023-04-29T06:04:59.552Z,62.74
2023-04-29T06:09:19.871Z,63.00
2023-04-29T06:13:28.260Z,62.16
2023-04-29T06:17:26.336Z,61.20
2023-04-29T06:21:24.293Z,60.53
2023-04-29T06:25:24.330Z,60.28
2023-04-29T06:29:25.282Z,59.49
2023-04-29T06:33:23.242Z,59.42
2023-04-29T06:37:21.342Z,58.04
2023-04-29T06:41:51.182Z,56.90
2023-04-29T06:46:11.213Z,57.33
2023-04-29T06:50:41.190Z,56.28
2023-04-29T06:54:40.210Z,56.07
2023-04-29T06:58:38.258Z,55.72
2023-04-29T07:02:36.256Z,55.49
2023-04-29T07:06:34.134Z,54.51
2023-04-29T07:10:33.233Z,52.96
2023-04-29T07:14:31.175Z,53.19
2023-04-29T07:18:29.283Z,51.43
2023-04-29T07:22:27.151Z,51.76
2023-04-29T07:26:29.265Z,52.14
2023-04-29T07:30:27.220Z,52.88
2023-04-29T07:34:25.291Z,52.40
2023-04-29T07:38:23.130Z,51.89
2023-04-29T07:42:22.174Z,50.60
2023-04-29T07:46:20.126Z,49.30
2023-04-29T07:50:18.235Z,47.74
2023-04-29T07:54:16.116Z,45.60
2023-04-29T07:58:14.292Z,45.23
2023-04-29T08:02:12.182Z,44.07
2023-04-29T08:06:16.215Z,44.54
2023-04-29T08:10:14.176Z,44.13
2023-04-29T08:14:12.110Z,44.04
2023-04-29T08:18:10.131Z,44.16
2023-04-29T08:22:11.218Z,43.94
2023-04-29T08:26:10.116Z,42.95
2023-04-29T08:30:08.137Z,43.71
2023-04-29T08:34:07.164Z,42.69
2023-04-29T08:37:44.791Z,42.84
2023-04-29T08:41:29.125Z,42.09
2023-04-29T08:45:30.155Z,42.02
2023-04-29T08:49:28.211Z,43.34
2023-04-29T08:53:28.155Z,43.67
2023-04-29T08:57:26.164Z,43.22
2023-04-29T09:01:25.219Z,42.58
2023-04-29T09:05:24.044Z,42.64
2023-04-29T09:09:22.078Z,43.15
2023-04-29T09:13:20.042Z,42.73
2023-04-29T09:17:18.099Z,41.86
2023-04-29T09:21:31.988Z,42.12
2023-04-29T09:25:30.129Z,42.93
2023-04-29T09:29:29.051Z,42.74
2023-04-29T09:33:27.048Z,43.28
2023-04-29T09:37:42.132Z,43.21
2023-04-29T09:41:40.093Z,43.09
2023-04-29T09:45:55.179Z,43.52
2023-04-29T09:49:58.143Z,43.16
2023-04-29T09:53:56.023Z,41.86
2023-04-29T09:57:55.058Z,42.55
2023-04-29T10:01:53.109Z,41.88
2023-04-29T10:05:54.050Z,42.71
2023-04-29T10:09:53.987Z,42.47
2023-04-29T10:13:57.013Z,43.60
2023-04-29T10:18:00.998Z,43.81
2023-04-29T10:21:58.980Z,43.59
2023-04-29T10:25:59.001Z,44.32
2023-04-29T10:29:58.011Z,44.47
2023-04-29T10:33:58.955Z,43.65
2023-04-29T10:38:00.039Z,44.66
2023-04-29T10:42:01.975Z,43.27
2023-04-29T10:46:00.073Z,44.12
2023-04-29T10:50:15.949Z,44.14
2023-04-29T10:54:15.067Z,43.69
2023-04-29T10:58:12.903Z,43.41
2023-04-29T11:02:11.106Z,44.44
2023-04-29T11:06:23.950Z,44.74
2023-04-29T11:10:22.029Z,42.82
2023-04-29T11:14:19.969Z,43.19
2023-04-29T11:18:17.987Z,43.14
2023-04-29T11:22:34.043Z,43.84
2023-04-29T11:26:34.043Z,42.59
2023-04-29T11:30:32.884Z,42.34
2023-04-29T11:34:30.930Z,41.47
2023-04-29T11:38:28.854Z,41.64
2023-04-29T11:42:26.960Z,41.93
2023-04-29T11:46:29.005Z,41.96
2023-04-29T11:50:28.140Z,41.93
2023-04-29T11:54:25.843Z,41.62
2023-04-29T11:58:24.004Z,42.01
2023-04-29T12:02:22.969Z,41.82
2023-04-29T12:06:20.877Z,42.27
2023-04-29T12:10:21.911Z,42.48
2023-04-29T12:14:20.007Z,43.09
2023-04-29T12:18:17.849Z,42.79
2023-04-29T12:22:17.904Z,41.91
2023-04-29T12:26:15.832Z,41.41
2023-04-29T12:30:13.853Z,40.97
2023-04-29T12:34:11.845Z,40.02
2023-04-29T12:38:12.890Z,39.93
2023-04-29T12:42:12.921Z,39.70
2023-04-29T12:46:24.853Z,39.11
2023-04-29T12:50:22.810Z,38.22
2023-04-29T12:54:20.826Z,37.54
2023-04-29T12:58:19.786Z,37.57
2023-04-29T13:02:18.936Z,36.62
2023-04-29T13:06:16.786Z,36.67
2023-04-29T13:10:14.818Z,37.56
2023-04-29T13:14:14.788Z,37.47
2023-04-29T13:18:12.861Z,37.11
2023-04-29T13:22:10.772Z,37.21
2023-04-29T13:26:08.811Z,36.99
2023-04-29T13:30:07.852Z,36.20
2023-04-29T13:34:09.625Z,38.27
2023-04-29T13:38:07.765Z,37.84
2023-04-29T13:42:05.753Z,37.24
2023-04-29T13:46:03.803Z,36.55
2023-04-29T13:54:41.250Z,36.17
2023-04-29T14:02:25.660Z,35.54
2023-04-29T14:06:23.801Z,35.13
2023-04-29T14:10:21.720Z,35.63
2023-04-29T14:14:19.749Z,35.29
2023-04-29T14:18:18.723Z,35.70
2023-04-29T14:22:16.840Z,35.94
2023-04-29T14:26:27.714Z,35.19
2023-04-29T14:30:26.758Z,34.68
2023-04-29T14:34:04.364Z,34.46
2023-04-29T14:37:28.155Z,35.01
2023-04-29T14:40:52.053Z,35.07
2023-04-29T14:44:16.016Z,34.62
2023-04-29T14:47:39.992Z,34.29
2023-04-29T14:51:03.957Z,34.66
2023-04-29T14:54:27.993Z,34.39
2023-04-29T14:57:51.795Z,34.00
2023-04-29T15:01:15.887Z,33.78
2023-04-29T15:04:45.679Z,34.45
2023-04-29T15:08:09.758Z,34.56
2023-04-29T15:11:33.893Z,34.51
2023-04-29T15:14:57.759Z,33.84
2023-04-29T15:18:23.390Z,33.78
2023-04-29T15:21:47.303Z,34.22
2023-04-29T15:25:11.393Z,33.90
2023-04-29T15:28:35.777Z,33.58
2023-04-29T15:31:59.767Z,33.61
2023-04-29T15:35:23.751Z,33.62
2023-04-29T15:38:47.690Z,33.96
2023-04-29T15:42:11.576Z,34.14
2023-04-29T15:45:35.560Z,33.75
2023-04-29T15:48:59.419Z,34.29
2023-04-29T15:52:24.536Z,34.22
2023-04-29T15:55:48.419Z,34.36
2023-04-29T15:59:12.400Z,34.38
2023-04-29T16:02:36.337Z,34.60
2023-04-29T16:06:00.650Z,34.68
2023-04-29T16:09:44.636Z,35.28
2023-04-29T16:13:42.631Z,35.33
2023-04-29T16:17:40.766Z,36.33
2023-04-29T16:21:39.663Z,37.34
2023-04-29T16:25:37.636Z,37.92
2023-04-29T16:29:35.638Z,38.66
2023-04-29T16:33:33.585Z,39.37
2023-04-29T16:37:31.599Z,39.84
2023-04-29T16:41:30.595Z,40.78
2023-04-29T16:45:28.685Z,41.23
2023-04-29T16:49:26.589Z,41.93
2023-04-29T16:53:24.557Z,42.39
2023-04-29T16:57:22.548Z,42.89
2023-04-29T17:01:20.708Z,43.26
2023-04-29T17:05:18.564Z,43.72
2023-04-29T17:09:16.577Z,44.46
2023-04-29T17:13:17.523Z,44.88
2023-04-29T17:17:17.638Z,45.45
2023-04-29T17:21:16.645Z,45.74
2023-04-29T17:25:14.782Z,46.20
2023-04-29T17:29:12.729Z,46.79
2023-04-29T17:33:12.616Z,47.06
2023-04-29T17:37:10.606Z,47.76
2023-04-29T17:41:08.534Z,48.30
2023-04-29T17:45:06.570Z,49.01
2023-04-29T17:49:04.584Z,49.80
2023-04-29T17:53:02.619Z,50.21
2023-04-29T17:57:01.634Z,50.81
2023-04-29T18:01:00.530Z,51.40
2023-04-29T18:04:58.618Z,51.69
2023-04-29T18:08:56.476Z,52.22
2023-04-29T18:12:55.683Z,52.60
2023-04-29T18:16:53.542Z,53.10
2023-04-29T18:20:51.557Z,53.53
2023-04-29T18:24:50.551Z,53.68
2023-04-29T18:28:48.640Z,54.04
2023-04-29T18:32:46.441Z,54.53
2023-04-29T18:36:44.461Z,55.25
2023-04-29T18:40:43.585Z,55.69
2023-04-29T18:44:41.606Z,56.05
2023-04-29T18:48:39.540Z,56.82
2023-04-29T18:52:37.525Z,57.28
2023-04-29T18:56:35.407Z,58.04
2023-04-29T19:00:33.574Z,58.26
2023-04-29T19:04:32.553Z,58.70
2023-04-29T19:08:32.433Z,59.25
2023-04-29T19:12:31.508Z,59.35
2023-04-29T19:16:29.501Z,59.49
2023-04-29T19:20:27.396Z,59.51
2023-04-29T19:24:25.558Z,60.02
2023-04-29T19:28:23.467Z,60.30
2023-04-29T19:32:21.621Z,60.64
2023-04-29T19:36:21.547Z,60.69
2023-04-29T19:40:21.973Z,60.98
2023-04-29T19:44:12.588Z,61.06
2023-04-29T19:48:11.461Z,61.37
2023-04-29T19:52:16.415Z,61.70
2023-04-29T19:56:14.371Z,62.18
2023-04-29T20:00:12.708Z,62.27
2023-04-29T20:04:12.605Z,62.87
2023-04-29T20:08:10.342Z,63.10
2023-04-29T20:12:10.413Z,63.45
2023-04-29T20:16:08.357Z,64.27
2023-04-29T20:20:08.370Z,64.54
2023-04-29T20:24:07.418Z,64.83
2023-04-29T20:28:05.391Z,65.65
2023-04-29T20:32:03.409Z,66.00
2023-04-29T20:36:01.453Z,67.05
2023-04-29T20:39:59.330Z,66.76
2023-04-29T20:43:57.433Z,66.85
2023-04-29T20:47:56.324Z,67.00
2023-04-29T20:51:55.521Z,67.47
2023-04-29T20:55:53.302Z,68.03
2023-04-29T20:59:51.528Z,68.06
2023-04-29T21:03:49.361Z,68.14
2023-04-29T21:07:47.279Z,68.45
2023-04-29T21:11:46.338Z,68.67
2023-04-29T21:15:46.368Z,68.70
2023-04-29T21:19:44.215Z,68.99
2023-04-29T21:23:42.285Z,69.60
2023-04-29T21:27:40.263Z,70.03
2023-04-29T21:31:38.354Z,70.57
2023-04-29T21:35:36.228Z,71.25
2023-04-29T21:39:34.233Z,71.40
2023-04-29T21:43:32.431Z,71.83
2023-04-29T21:47:33.390Z,72.07
2023-04-29T21:51:31.192Z,72.54
2023-04-29T21:55:29.325Z,73.10
2023-04-29T21:59:27.227Z,73.88
2023-04-29T22:03:25.328Z,73.85
2023-04-29T22:07:23.228Z,74.18
2023-04-29T22:11:23.288Z,74.68
2023-04-29T22:15:28.663Z,75.30
2023-04-29T22:19:27.198Z,75.76
2023-04-29T22:23:25.213Z,76.09
2023-04-29T22:27:23.305Z,76.66
2023-04-29T22:31:22.222Z,77.26
2023-04-29T22:35:20.172Z,77.92
2023-04-29T22:39:18.097Z,78.86
2023-04-29T22:43:16.192Z,79.31
2023-04-29T22:47:14.205Z,80.00
2023-04-29T22:51:13.193Z,80.68
2023-04-29T22:55:11.159Z,80.42
2023-04-29T22:59:09.185Z,80.77
2023-04-29T23:03:07.223Z,81.61
2023-04-29T23:07:05.237Z,81.66
2023-04-29T23:11:04.153Z,82.05
2023-04-29T23:15:02.255Z,82.87
2023-04-29T23:19:01.131Z,83.43
2023-04-29T23:22:59.127Z,83.99
2023-04-29T23:26:57.179Z,84.12
2023-04-29T23:30:55.237Z,84.79
2023-04-29T23:34:53.072Z,85.04
2023-04-29T23:38:51.101Z,84.48
2023-04-29T23:42:49.032Z,84.91
2023-04-29T23:46:47.246Z,85.01
2023-04-29T23:50:45.614Z,85.11
2023-04-29T23:54:43.140Z,84.92
2023-04-29T23:58:41.053Z,84.42
